Airport View

Enter AWOS ICAO identifier for current METAR.

ex. KFNL

KGYB 112135Z AUTO 00000KT 10SM CLR 15/02 A3042 RMK AO2 T01450022

11 Dec 2019 21:53

Frequency: 119.225

Phone: 979-542-0382

Other Area AWOS: K3T5 - KRWV - K11R - KEDC

TAF KAUS 111720Z 1118/1224 04009KT P6SM BKN015 TEMPO 1118/1119 SCT015 FM111900 05010KT P6SM SCT015 FM120700 09004KT P6SM BKN040 FM121200 13006KT P6SM BKN025